Time;durP1;ratioP1;P1;durP2;ratioP2;P2;SDS_P1;SDS_P2;PMS_P1;PMS_P2;Temp;Humidity;BMP_temperature;BMP_pressure;BME280_temperature;BME280_humidity;BME280_pressure;Samples;Min_cycle;Max_cycle;Signal;HPM_P1;HPM_P2
2021/03/06 00:00:06;;;;;;;13.38;8.32;;;;;;;0.67;68.05;102033.13;5109357;28;20147;-84
2021/03/06 00:02:35;;;;;;;12.02;7.78;;;;;;;0.66;68.80;102040.06;5106232;28;20113;-85
2021/03/06 00:05:02;;;;;;;14.88;8.38;;;;;;;0.64;68.39;102039.16;5105615;28;20079;-84
2021/03/06 00:07:29;;;;;;;13.98;8.25;;;;;;;0.60;68.39;102041.69;5097771;28;20324;-84
2021/03/06 00:09:56;;;;;;;14.20;8.18;;;;;;;0.56;68.50;102045.06;5095090;28;20060;-85
2021/03/06 00:12:23;;;;;;;13.80;7.90;;;;;;;0.57;68.83;102041.63;5097061;28;20081;-88
2021/03/06 00:14:49;;;;;;;14.10;8.23;;;;;;;0.55;69.10;102049.41;5096310;28;20155;-83
2021/03/06 00:17:16;;;;;;;14.45;8.15;;;;;;;0.56;69.22;102050.28;5093244;28;20054;-85
2021/03/06 00:19:45;;;;;;;14.70;8.30;;;;;;;0.55;69.01;102048.53;5098687;28;20056;-85
2021/03/06 00:22:11;;;;;;;13.48;7.85;;;;;;;0.53;68.91;102047.63;5096526;28;20070;-84
2021/03/06 00:24:39;;;;;;;15.27;8.73;;;;;;;0.53;68.52;102055.44;5093370;28;20067;-84
2021/03/06 00:27:06;;;;;;;18.73;8.30;;;;;;;0.48;69.11;102060.53;5065138;28;20082;-86
2021/03/06 00:29:32;;;;;;;14.40;8.65;;;;;;;0.48;69.41;102057.06;5095396;28;20048;-86
2021/03/06 00:31:58;;;;;;;13.57;8.35;;;;;;;0.51;69.41;102060.59;5074319;28;20052;-83
2021/03/06 00:34:25;;;;;;;14.27;8.52;;;;;;;0.51;69.69;102070.16;5093618;28;20109;-85
2021/03/06 00:36:54;;;;;;;13.70;7.82;;;;;;;0.50;69.44;102068.41;5077095;28;20055;-85
2021/03/06 00:39:23;;;;;;;14.90;8.88;;;;;;;0.44;69.83;102058.75;5092670;28;20124;-85
2021/03/06 00:41:49;;;;;;;11.80;8.05;;;;;;;0.48;68.75;102064.88;5099090;28;20063;-85
2021/03/06 00:44:24;;;;;;;12.15;7.75;;;;;;;0.46;68.76;102062.25;5081884;28;20080;-86
2021/03/06 00:46:51;;;;;;;13.30;7.90;;;;;;;0.34;69.23;102044.63;5105411;28;20070;-85
2021/03/06 00:49:24;;;;;;;12.35;7.28;;;;;;;0.32;69.30;102045.44;5104396;28;20063;-85
2021/03/06 00:51:53;;;;;;;11.35;7.07;;;;;;;0.39;69.13;102062.09;5102035;28;20049;-86
2021/03/06 00:54:20;;;;;;;12.88;8.50;;;;;;;0.35;69.56;102054.19;5084122;28;20130;-86
2021/03/06 00:56:46;;;;;;;13.05;7.63;;;;;;;0.32;69.31;102059.34;5114424;28;20036;-81
2021/03/06 00:59:12;;;;;;;12.50;8.02;;;;;;;0.32;69.18;102061.06;5110011;28;20119;-88
2021/03/06 01:01:40;;;;;;;13.32;7.72;;;;;;;0.33;69.89;102055.88;5096050;28;20047;-87
2021/03/06 01:04:07;;;;;;;14.55;8.40;;;;;;;0.22;69.99;102035.69;5099751;28;20048;-86
2021/03/06 01:06:33;;;;;;;12.57;7.93;;;;;;;0.25;69.37;102047.03;5106128;28;20058;-84
2021/03/06 01:09:00;;;;;;;13.23;8.05;;;;;;;0.24;70.04;102040.06;5102508;28;20447;-84
2021/03/06 01:11:28;;;;;;;12.38;7.95;;;;;;;0.21;70.45;102042.59;5103103;28;20066;-87
2021/03/06 01:13:56;;;;;;;13.43;7.45;;;;;;;0.25;70.12;102044.44;5090733;28;20052;-85
2021/03/06 01:16:23;;;;;;;13.50;8.05;;;;;;;0.21;70.43;102052.16;5102606;28;20440;-86
2021/03/06 01:18:49;;;;;;;14.77;8.68;;;;;;;0.24;70.43;102054.81;5103957;28;20113;-84
2021/03/06 01:21:16;;;;;;;13.63;7.95;;;;;;;0.21;70.22;102049.53;5090365;28;20060;-85
2021/03/06 01:23:42;;;;;;;14.55;7.72;;;;;;;0.14;70.34;102050.28;5092062;28;20048;-84
2021/03/06 01:26:09;;;;;;;12.43;7.72;;;;;;;0.15;70.62;102047.72;5110417;28;20355;-84
2021/03/06 01:28:57;;;;;;;15.05;8.50;;;;;;;0.15;70.82;102042.50;5113375;28;20038;-84
2021/03/06 01:31:23;;;;;;;12.95;8.35;;;;;;;0.13;70.65;102038.97;5109445;28;20055;-85
2021/03/06 01:33:51;;;;;;;14.55;8.82;;;;;;;0.12;71.37;102044.16;5103937;28;20079;-85
2021/03/06 01:36:18;;;;;;;14.18;8.63;;;;;;;0.12;71.19;102045.03;5081088;28;20056;-84
2021/03/06 01:38:44;;;;;;;15.68;8.40;;;;;;;0.11;71.19;102051.09;5082031;28;20067;-85
2021/03/06 01:41:10;;;;;;;12.20;8.02;;;;;;;0.09;70.99;102042.34;5085162;28;20054;-86
2021/03/06 01:43:37;;;;;;;15.77;8.18;;;;;;;0.06;70.98;102047.50;5086538;28;20051;-86
2021/03/06 01:46:03;;;;;;;14.23;8.32;;;;;;;0.03;70.76;102037.00;5102794;28;20055;-87
2021/03/06 01:48:30;;;;;;;14.55;8.40;;;;;;;-0.01;71.60;102033.47;5081035;28;20071;-86
2021/03/06 01:50:57;;;;;;;15.70;8.60;;;;;;;-0.02;71.29;102031.72;5102472;28;20037;-86
2021/03/06 01:53:23;;;;;;;13.85;8.40;;;;;;;-0.05;71.41;102035.97;5099393;28;20047;-85
2021/03/06 01:55:51;;;;;;;13.15;8.18;;;;;;;-0.13;71.16;102021.88;5096896;28;20486;-85
2021/03/06 01:58:18;;;;;;;13.73;7.68;;;;;;;-0.15;71.76;102034.84;5095352;28;20048;-85
2021/03/06 02:00:44;;;;;;;15.18;8.02;;;;;;;-0.08;71.90;102039.38;5082207;28;20051;-87
2021/03/06 02:03:12;;;;;;;13.23;8.95;;;;;;;-0.14;71.72;102041.81;5106576;28;20052;-85
2021/03/06 02:05:38;;;;;;;13.73;8.45;;;;;;;-0.18;71.59;102033.94;5103852;28;20598;-86
2021/03/06 02:08:05;;;;;;;17.80;7.85;;;;;;;-0.21;71.00;102032.13;5105418;28;20115;-84
2021/03/06 02:10:35;;;;;;;12.63;8.18;;;;;;;-0.24;71.36;102034.66;5068918;28;20054;-86
2021/03/06 02:13:08;;;;;;;12.60;8.10;;;;;;;-0.23;71.68;102035.53;5098934;28;20044;-85
2021/03/06 02:15:51;;;;;;;13.57;8.48;;;;;;;-0.24;71.72;102036.38;5102174;28;20055;-84
2021/03/06 02:18:41;;;;;;;14.90;8.40;;;;;;;-0.22;71.57;102039.91;5085859;28;20056;-84
2021/03/06 02:21:28;;;;;;;10.95;7.80;;;;;;;-0.21;72.24;102042.53;5081905;28;20067;-86
2021/03/06 02:24:14;;;;;;;14.95;8.40;;;;;;;-0.23;72.01;102041.63;5099519;28;20056;-86
2021/03/06 02:27:02;;;;;;;13.75;8.50;;;;;;;-0.25;72.36;102040.72;5103808;28;20075;-86
2021/03/06 02:29:43;;;;;;;13.77;8.05;;;;;;;-0.27;72.48;102041.50;5104865;27;20043;-86
2021/03/06 02:32:19;;;;;;;14.88;8.07;;;;;;;-0.23;72.75;102048.56;5107397;28;20068;-86
2021/03/06 02:35:03;;;;;;;13.63;8.50;;;;;;;-0.26;72.70;102040.66;5092828;28;20036;-85
2021/03/06 02:37:32;;;;;;;14.65;8.55;;;;;;;-0.35;72.69;102043.94;5107761;28;20059;-87
2021/03/06 02:40:00;;;;;;;14.15;8.38;;;;;;;-0.41;72.38;102044.66;5110190;28;20038;-87
2021/03/06 02:42:31;;;;;;;14.65;8.18;;;;;;;-0.44;73.49;102042.00;5110651;28;20086;-87
2021/03/06 02:45:03;;;;;;;13.30;7.82;;;;;;;-0.43;73.27;102041.16;5076149;28;20106;-86
2021/03/06 02:47:30;;;;;;;13.82;8.20;;;;;;;-0.43;73.01;102041.16;5111467;27;20044;-87
2021/03/06 02:49:59;;;;;;;14.23;8.63;;;;;;;-0.48;72.79;102040.19;5097950;28;20048;-84
2021/03/06 02:52:26;;;;;;;12.38;8.18;;;;;;;-0.43;73.21;102048.97;5110690;27;20099;-86
2021/03/06 02:54:54;;;;;;;14.88;8.10;;;;;;;-0.42;73.35;102055.03;5112481;27;20024;-84
2021/03/06 02:57:31;;;;;;;15.45;8.43;;;;;;;-0.43;72.97;102048.06;5113565;27;20048;-87
2021/03/06 03:00:12;;;;;;;14.00;8.25;;;;;;;-0.45;73.05;102054.97;5108640;27;20037;-85
2021/03/06 03:02:52;;;;;;;12.68;8.57;;;;;;;-0.43;73.42;102056.75;5110858;28;20032;-85
2021/03/06 03:05:21;;;;;;;17.33;8.23;;;;;;;-0.44;73.30;102052.41;5112986;27;20135;-85
2021/03/06 03:08:39;;;;;;;14.40;8.38;;;;;;;-0.46;73.56;102054.06;5089983;28;20536;-86
2021/03/06 03:11:09;;;;;;;13.93;8.00;;;;;;;-0.46;72.78;102055.81;4999101;28;20046;-87
2021/03/06 03:13:40;;;;;;;15.23;7.78;;;;;;;-0.53;73.24;102053.91;5004899;28;20102;-86
2021/03/06 03:16:15;;;;;;;13.55;7.65;;;;;;;-0.54;73.47;102053.03;5062661;28;20087;-86
2021/03/06 03:18:50;;;;;;;13.52;8.40;;;;;;;-0.56;73.34;102053.81;5105233;28;20039;-87
2021/03/06 03:21:20;;;;;;;12.73;7.88;;;;;;;-0.61;73.87;102047.63;5108518;28;20028;-87
2021/03/06 03:23:51;;;;;;;14.73;7.97;;;;;;;-0.58;73.23;102050.31;5107603;28;20829;-87
2021/03/06 03:26:20;;;;;;;14.02;7.72;;;;;;;-0.58;73.07;102056.38;5104811;28;20125;-86
2021/03/06 03:28:49;;;;;;;12.68;7.95;;;;;;;-0.58;73.08;102056.38;5103292;28;20062;-86
2021/03/06 03:31:18;;;;;;;13.43;8.07;;;;;;;-0.66;72.75;102042.31;5087536;28;20208;-86
2021/03/06 03:33:46;;;;;;;15.43;8.20;;;;;;;-0.68;72.95;102044.00;5106104;28;20040;-86
2021/03/06 03:36:13;;;;;;;15.07;7.70;;;;;;;-0.68;73.31;102048.31;5108850;28;20104;-86
2021/03/06 03:38:40;;;;;;;11.63;7.65;;;;;;;-0.75;73.11;102048.16;5106449;28;20052;-84
2021/03/06 03:41:09;;;;;;;15.77;8.23;;;;;;;-0.71;73.22;102059.53;5116002;28;20048;-86
2021/03/06 03:43:38;;;;;;;12.35;8.05;;;;;;;-0.71;73.04;102057.81;5110606;28;20047;-85
2021/03/06 03:46:06;;;;;;;15.15;8.05;;;;;;;-0.69;73.99;102055.25;5092023;28;20087;-86
2021/03/06 03:48:36;;;;;;;14.45;8.23;;;;;;;-0.67;73.86;102060.50;5086230;28;20064;-86
2021/03/06 03:51:03;;;;;;;13.65;8.07;;;;;;;-0.72;74.24;102058.66;5086953;28;20121;-85
2021/03/06 03:53:30;;;;;;;13.25;8.07;;;;;;;-0.77;74.34;102056.75;5111555;28;20052;-85
2021/03/06 03:55:57;;;;;;;13.85;8.18;;;;;;;-0.80;74.62;102059.31;5091170;28;20043;-88
2021/03/06 03:58:24;;;;;;;14.82;8.23;;;;;;;-0.85;74.43;102059.19;5107349;28;20274;-87
2021/03/06 04:00:59;;;;;;;14.75;8.18;;;;;;;-0.91;75.00;102066.81;5115396;28;20048;-84
2021/03/06 04:03:27;;;;;;;13.93;8.10;;;;;;;-0.96;75.01;102058.03;5110427;28;20054;-85
2021/03/06 04:05:55;;;;;;;15.50;8.75;;;;;;;-0.96;75.12;102058.03;5112503;28;20052;-85
2021/03/06 04:08:22;;;;;;;15.55;8.00;;;;;;;-0.91;75.21;102068.53;5114206;27;20055;-85
2021/03/06 04:10:48;;;;;;;15.52;8.05;;;;;;;-0.90;75.17;102072.88;5112168;28;20067;-86
2021/03/06 04:13:15;;;;;;;13.23;8.68;;;;;;;-0.88;75.35;102074.69;5106977;28;20055;-87
2021/03/06 04:15:41;;;;;;;12.15;7.70;;;;;;;-0.90;75.07;102067.69;5083206;28;20053;-87
2021/03/06 04:18:08;;;;;;;13.73;7.97;;;;;;;-0.87;75.04;102067.78;5098257;28;20051;-87
2021/03/06 04:20:35;;;;;;;12.98;7.95;;;;;;;-0.89;75.10;102059.06;5100614;28;20064;-88
2021/03/06 04:23:01;;;;;;;15.27;8.05;;;;;;;-0.90;74.69;102063.38;5099065;28;20192;-87
2021/03/06 04:25:29;;;;;;;14.48;7.95;;;;;;;-0.92;75.09;102075.44;5100367;28;20048;-88
2021/03/06 04:27:57;;;;;;;13.60;8.00;;;;;;;-0.93;75.32;102072.81;5102100;28;20056;-88
2021/03/06 04:30:25;;;;;;;14.35;8.13;;;;;;;-0.91;75.40;102069.41;5087129;28;20060;-88
2021/03/06 04:32:51;;;;;;;13.05;7.97;;;;;;;-0.91;75.60;102068.53;5106059;28;20040;-85
2021/03/06 04:35:18;;;;;;;16.45;8.25;;;;;;;-0.89;75.24;102072.06;5102358;28;20067;-85
2021/03/06 04:37:47;;;;;;;13.50;7.75;;;;;;;-0.92;75.07;102074.56;5106500;28;20063;-85
2021/03/06 04:40:20;;;;;;;15.27;8.07;;;;;;;-0.91;75.17;102079.81;5104000;28;20113;-86
2021/03/06 04:42:46;;;;;;;13.52;8.27;;;;;;;-0.96;75.39;102075.34;5110902;28;20044;-86
2021/03/06 04:45:12;;;;;;;14.13;8.10;;;;;;;-0.96;75.59;102076.22;5111587;28;20047;-85
2021/03/06 04:47:53;;;;;;;15.55;7.78;;;;;;;-0.97;75.29;102076.19;5111061;28;20081;-86
2021/03/06 04:50:20;;;;;;;11.52;8.02;;;;;;;-1.02;75.94;102073.44;5088578;28;20242;-85
2021/03/06 04:52:46;;;;;;;13.07;8.38;;;;;;;-1.01;75.89;102080.41;5085875;28;20039;-85
2021/03/06 04:55:12;;;;;;;14.65;7.68;;;;;;;-1.09;76.08;102079.31;5106125;28;20099;-85
2021/03/06 04:57:39;;;;;;;14.45;8.35;;;;;;;-1.11;75.71;102078.41;5103873;28;20032;-85
2021/03/06 05:00:07;;;;;;;13.38;8.52;;;;;;;-1.12;76.15;102085.34;5103512;28;20028;-86
2021/03/06 05:02:36;;;;;;;;;;;;;;;-1.08;76.22;102083.69;5096468;27;20036;-86
2021/03/06 05:05:08;;;;;;;12.35;7.90;;;;;;;-1.08;76.14;102081.06;5097831;28;19916;-87
2021/03/06 05:07:35;;;;;;;14.48;8.18;;;;;;;-1.09;76.02;102082.78;5110579;28;20103;-87
2021/03/06 05:10:03;;;;;;;14.57;8.30;;;;;;;-1.07;76.33;102080.25;5112274;28;20051;-87
2021/03/06 05:12:29;;;;;;;14.10;7.60;;;;;;;-1.10;76.28;102073.22;5092042;28;20044;-86
2021/03/06 05:14:57;;;;;;;13.02;7.90;;;;;;;-1.10;76.11;102082.75;5096664;28;20052;-87
2021/03/06 05:17:23;;;;;;;12.48;7.25;;;;;;;-1.15;76.41;102072.25;5113112;28;20044;-86
2021/03/06 05:19:55;;;;;;;14.45;7.93;;;;;;;-1.10;76.03;102093.16;5107166;27;20044;-87
2021/03/06 05:22:22;;;;;;;17.70;7.75;;;;;;;-1.14;76.28;102087.00;5117131;27;20070;-86
2021/03/06 05:24:51;;;;;;;13.35;7.45;;;;;;;-1.16;76.52;102088.69;5107252;28;20032;-87
2021/03/06 05:27:31;;;;;;;14.00;8.27;;;;;;;-1.15;75.99;102092.16;5089820;28;20068;-87
2021/03/06 05:30:00;;;;;;;14.93;7.95;;;;;;;-1.17;76.36;102093.84;5110991;28;20055;-86
2021/03/06 05:32:34;;;;;;;14.32;7.80;;;;;;;-1.25;76.32;102092.72;5112262;28;20048;-86
2021/03/06 05:35:01;;;;;;;13.18;7.75;;;;;;;-1.29;76.35;102099.56;5109268;28;20044;-87
2021/03/06 05:37:28;;;;;;;13.90;8.60;;;;;;;-1.35;75.95;102104.59;5110099;28;20131;-87
2021/03/06 05:39:54;;;;;;;15.13;8.52;;;;;;;-1.39;76.90;102097.53;5092384;28;20088;-87
2021/03/06 05:42:23;;;;;;;13.70;7.95;;;;;;;-1.42;76.58;102108.72;5111710;28;20048;-85
2021/03/06 05:44:51;;;;;;;13.75;8.25;;;;;;;-1.38;76.99;102098.41;5094342;28;20055;-88
2021/03/06 05:47:18;;;;;;;12.30;7.70;;;;;;;-1.37;76.66;102100.19;5105997;28;20046;-86
2021/03/06 05:49:45;;;;;;;13.15;7.82;;;;;;;-1.33;76.64;102096.84;5102046;28;20052;-86
2021/03/06 05:52:17;;;;;;;15.05;7.85;;;;;;;-1.33;76.35;102095.13;5088176;28;20036;-86
2021/03/06 05:54:48;;;;;;;12.48;7.55;;;;;;;-1.25;75.89;102109.19;5102802;28;21202;-85
2021/03/06 05:57:18;;;;;;;11.93;7.68;;;;;;;-1.27;75.81;102110.91;5106884;28;20051;-86
2021/03/06 05:59:48;;;;;;;14.52;8.40;;;;;;;-1.25;75.26;102117.00;5108753;28;20032;-88
2021/03/06 06:02:19;;;;;;;13.55;8.00;;;;;;;-1.23;75.46;102120.53;5107482;28;21329;-86
2021/03/06 06:04:46;;;;;;;11.75;7.32;;;;;;;-1.24;75.37;102117.88;5106617;28;20060;-88
2021/03/06 06:07:17;;;;;;;12.60;7.70;;;;;;;-1.27;75.24;102117.81;5112034;28;20040;-85
2021/03/06 06:09:44;;;;;;;11.60;7.53;;;;;;;-1.27;75.88;102123.91;5092881;28;20052;-85
2021/03/06 06:12:11;;;;;;;12.93;8.15;;;;;;;-1.30;75.32;102107.31;5103142;28;20763;-85
2021/03/06 06:14:39;;;;;;;13.23;8.45;;;;;;;-1.28;75.64;102109.13;5098606;28;20082;-84
2021/03/06 06:17:09;;;;;;;12.68;8.38;;;;;;;-1.29;76.01;102109.09;5099781;28;20104;-85
2021/03/06 06:19:38;;;;;;;11.55;7.63;;;;;;;-1.30;75.99;102103.00;5081738;28;20048;-87
2021/03/06 06:22:34;;;;;;;13.40;7.80;;;;;;;-1.29;76.25;102109.09;5107900;28;20059;-87
2021/03/06 06:25:00;;;;;;;12.52;7.45;;;;;;;-1.27;76.68;102113.50;5089123;28;20050;-88
2021/03/06 06:27:32;;;;;;;13.52;7.95;;;;;;;-1.22;75.62;102111.00;5105982;28;20052;-85
2021/03/06 06:30:00;;;;;;;14.98;8.40;;;;;;;-1.21;76.31;102112.78;5102599;28;20055;-86
2021/03/06 06:32:40;;;;;;;13.25;7.28;;;;;;;-1.16;75.45;102119.88;5101554;28;20072;-88
2021/03/06 06:35:13;;;;;;;12.68;7.30;;;;;;;-1.20;74.85;102115.41;5108003;28;20055;-86
2021/03/06 06:38:04;;;;;;;12.07;7.22;;;;;;;-1.20;75.27;102122.34;5107434;28;20133;-86
2021/03/06 06:40:33;;;;;;;13.45;7.65;;;;;;;-1.14;75.76;102125.13;5084164;28;20050;-85
2021/03/06 06:43:00;;;;;;;12.13;7.38;;;;;;;-1.07;74.91;102132.22;5086495;28;20058;-86
2021/03/06 06:45:36;;;;;;;14.18;7.60;;;;;;;-1.04;74.03;102132.31;5082111;28;20139;-85
2021/03/06 06:48:11;;;;;;;13.70;7.72;;;;;;;-1.03;74.39;102134.09;5096299;28;20120;-85
2021/03/06 06:50:38;;;;;;;14.32;7.95;;;;;;;-0.99;73.70;102130.75;5097645;28;20048;-87
2021/03/06 06:53:06;;;;;;;12.70;8.25;;;;;;;-0.92;74.18;102131.78;5098535;28;20058;-87
2021/03/06 06:55:40;;;;;;;14.40;7.28;;;;;;;-0.84;73.52;102136.38;5078808;28;20048;-86
2021/03/06 06:58:09;;;;;;;15.30;7.63;;;;;;;-0.77;72.56;102140.88;5098106;28;20071;-85
2021/03/06 07:00:36;;;;;;;11.85;7.20;;;;;;;-0.77;73.01;102132.19;5078575;28;20124;-84
2021/03/06 07:03:05;;;;;;;9.55;6.38;;;;;;;-0.69;72.62;102137.63;5084145;28;20043;-88
2021/03/06 07:05:39;;;;;;;14.68;7.47;;;;;;;-0.51;72.56;102151.13;5104879;28;20056;-85
2021/03/06 07:08:07;;;;;;;11.60;6.70;;;;;;;-0.39;71.48;102143.63;5104551;28;20054;-83
2021/03/06 07:10:39;;;;;;;11.45;6.90;;;;;;;-0.22;71.11;102146.63;5100701;28;20210;-83
2021/03/06 07:13:10;;;;;;;11.52;7.20;;;;;;;0.07;70.25;102158.66;5105618;27;20082;-86
2021/03/06 07:15:39;;;;;;;11.52;6.38;;;;;;;0.48;68.58;102151.75;5104079;28;20074;-88
2021/03/06 07:18:16;;;;;;;9.23;6.53;;;;;;;0.99;67.05;102152.00;5091667;28;20051;-85
2021/03/06 07:20:44;;;;;;;10.27;6.53;;;;;;;1.72;64.68;102153.38;5087637;28;20056;-87
2021/03/06 07:23:22;;;;;;;10.88;6.88;;;;;;;2.50;60.76;102153.72;5098588;28;20052;-84
2021/03/06 07:25:53;;;;;;;13.13;6.55;;;;;;;3.14;57.67;102143.22;5092978;28;20579;-86
2021/03/06 07:28:27;;;;;;;9.93;5.95;;;;;;;3.26;56.31;102149.44;5096348;28;20044;-83
2021/03/06 07:30:57;;;;;;;9.25;6.47;;;;;;;3.12;56.85;102155.41;5101676;28;20048;-86
2021/03/06 07:33:26;;;;;;;10.13;6.78;;;;;;;3.20;57.01;102149.34;5097127;28;20408;-84
2021/03/06 07:35:55;;;;;;;9.27;5.65;;;;;;;3.56;55.64;102149.75;5078446;28;20060;-85
2021/03/06 07:38:22;;;;;;;11.85;7.18;;;;;;;3.85;54.43;102143.03;5098074;28;20052;-85
2021/03/06 07:40:59;;;;;;;9.45;5.80;;;;;;;4.09;53.93;102144.09;5077674;28;20051;-85
2021/03/06 07:43:31;;;;;;;11.57;6.20;;;;;;;4.49;51.81;102147.84;5080321;28;20078;-86
2021/03/06 07:45:58;;;;;;;9.88;5.63;;;;;;;4.65;50.94;102146.19;5095131;28;20055;-85
2021/03/06 07:48:42;;;;;;;10.52;5.70;;;;;;;4.72;51.00;102148.84;5097953;28;20155;-87
2021/03/06 07:51:15;;;;;;;8.65;5.43;;;;;;;5.07;50.44;102156.88;5098694;28;20069;-84
2021/03/06 07:53:47;;;;;;;8.27;5.55;;;;;;;5.31;50.09;102142.06;5074597;28;20052;-85
2021/03/06 07:56:14;;;;;;;8.27;6.15;;;;;;;5.47;49.73;102151.75;5075916;28;20114;-84
2021/03/06 07:58:50;;;;;;;7.80;5.63;;;;;;;5.53;49.52;102151.72;5077874;28;20064;-84
2021/03/06 08:01:29;;;;;;;9.73;6.40;;;;;;;5.56;49.99;102159.63;5079727;28;20056;-86
2021/03/06 08:03:57;;;;;;;9.98;6.40;;;;;;;5.59;48.97;102160.50;5084125;28;20048;-88
2021/03/06 08:06:25;;;;;;;9.93;6.35;;;;;;;5.55;48.54;102149.97;5100019;28;20146;-85
2021/03/06 08:09:04;;;;;;;9.20;5.75;;;;;;;5.09;49.43;102165.63;5086281;28;20058;-86
2021/03/06 08:11:33;;;;;;;7.03;5.20;;;;;;;4.82;51.03;102170.78;5104706;28;20082;-86
2021/03/06 08:14:05;;;;;;;10.52;5.82;;;;;;;4.55;51.40;102154.03;5108812;28;20044;-88
2021/03/06 08:16:35;;;;;;;10.50;5.78;;;;;;;4.45;50.42;102157.44;5095513;28;20066;-86
2021/03/06 08:19:24;;;;;;;9.57;5.47;;;;;;;4.35;51.25;102155.63;5095442;28;20044;-84
2021/03/06 08:21:53;;;;;;;9.57;5.70;;;;;;;4.46;51.40;102164.44;5112796;28;20108;-83
2021/03/06 08:24:27;;;;;;;8.90;5.93;;;;;;;4.66;51.01;102161.06;5107291;28;20077;-85
2021/03/06 08:27:02;;;;;;;8.70;5.47;;;;;;;5.12;50.06;102160.41;5100842;28;20044;-84
2021/03/06 08:29:53;;;;;;;7.20;5.28;;;;;;;5.61;48.74;102155.25;5099061;28;20048;-84
2021/03/06 08:32:36;;;;;;;9.35;5.40;;;;;;;6.13;47.10;102155.31;5106714;28;20090;-87
2021/03/06 08:35:21;;;;;;;7.35;5.30;;;;;;;6.54;46.44;102150.88;5106326;28;20044;-86
2021/03/06 08:37:49;;;;;;;7.32;5.30;;;;;;;7.08;45.10;102154.19;5087013;28;20059;-85
2021/03/06 08:40:19;;;;;;;7.38;5.50;;;;;;;7.71;44.23;102149.44;5090731;28;20054;-85
2021/03/06 08:42:57;;;;;;;6.85;5.40;;;;;;;8.02;43.40;102150.06;5091430;28;20052;-86
2021/03/06 08:45:33;;;;;;;10.10;5.38;;;;;;;7.99;43.34;102153.59;5089953;28;22609;-85
2021/03/06 08:48:04;;;;;;;8.68;5.38;;;;;;;7.40;44.12;102154.88;5083515;28;20098;-86
2021/03/06 08:50:35;;;;;;;9.55;5.90;;;;;;;6.61;46.09;102160.47;5104197;28;20048;-87
2021/03/06 08:53:07;;;;;;;8.40;5.70;;;;;;;5.76;47.24;102151.78;5109650;28;20119;-85
2021/03/06 08:55:40;;;;;;;9.52;6.60;;;;;;;5.02;48.82;102148.13;5096135;28;20121;-85
2021/03/06 08:58:11;;;;;;;8.00;5.93;;;;;;;4.29;50.38;102147.72;5092291;28;20028;-86
2021/03/06 09:00:56;;;;;;;9.75;6.22;;;;;;;3.87;52.75;102148.28;5113887;28;20071;-85
2021/03/06 09:03:26;;;;;;;8.93;5.70;;;;;;;3.70;53.94;102148.13;5103361;28;20484;-82
2021/03/06 09:05:58;;;;;;;10.35;6.90;;;;;;;3.64;54.68;102147.19;5099253;28;20083;-84
2021/03/06 09:08:31;;;;;;;12.18;6.82;;;;;;;3.63;54.85;102142.81;5077542;28;20098;-86
2021/03/06 09:11:01;;;;;;;9.18;6.10;;;;;;;3.66;55.20;102151.56;5074322;28;20040;-85
2021/03/06 09:13:31;;;;;;;11.02;7.07;;;;;;;3.70;54.86;102149.88;5093657;28;20051;-83
2021/03/06 09:16:00;;;;;;;10.55;5.95;;;;;;;3.73;54.95;102149.91;5079591;28;20060;-84
2021/03/06 09:18:30;;;;;;;10.52;6.32;;;;;;;3.78;54.95;102150.78;5104046;28;20064;-87
2021/03/06 09:21:03;;;;;;;12.07;6.65;;;;;;;3.86;55.05;102150.03;5089358;27;20091;-87
2021/03/06 09:23:37;;;;;;;9.48;5.97;;;;;;;3.97;55.11;102143.97;5110012;28;20056;-87
2021/03/06 09:26:13;;;;;;;10.57;6.75;;;;;;;4.04;53.38;102151.03;5095132;28;20070;-83
2021/03/06 09:28:40;;;;;;;11.98;6.35;;;;;;;4.01;53.33;102148.38;5115936;27;20139;-86
2021/03/06 09:31:29;;;;;;;8.90;5.95;;;;;;;4.06;53.85;102144.94;5092546;28;20042;-85
2021/03/06 09:33:57;;;;;;;10.52;6.00;;;;;;;4.19;54.06;102145.91;5103854;28;20066;-86
2021/03/06 09:36:28;;;;;;;10.45;6.20;;;;;;;4.31;53.48;102145.09;5108288;28;20059;-86
2021/03/06 09:38:58;;;;;;;;;;;;;;;4.39;52.51;102148.66;5087412;28;20135;-86
2021/03/06 09:41:31;;;;;;;6.60;5.03;;;;;;;4.44;52.64;102137.31;5080897;28;19924;-86
2021/03/06 09:44:05;;;;;;;14.55;6.47;;;;;;;4.56;51.76;102137.38;5083206;28;20479;-86
2021/03/06 09:46:34;;;;;;;9.95;6.43;;;;;;;4.63;51.39;102142.66;5094662;28;20161;-85
2021/03/06 09:49:04;;;;;;;8.88;6.10;;;;;;;4.71;51.07;102138.34;5069908;28;20099;-86
2021/03/06 09:51:52;;;;;;;7.88;4.82;;;;;;;4.88;47.59;102139.28;5098815;28;20076;-86
2021/03/06 09:54:34;;;;;;;8.27;5.25;;;;;;;4.93;47.09;102133.19;5097547;28;20051;-86
2021/03/06 09:57:06;;;;;;;6.55;4.60;;;;;;;4.98;46.36;102135.84;5077433;28;20143;-85
2021/03/06 09:59:39;;;;;;;6.88;4.95;;;;;;;5.05;46.08;102132.34;5090571;28;20036;-84
2021/03/06 10:02:10;;;;;;;8.70;5.15;;;;;;;5.25;45.44;102140.28;5102633;28;20479;-83
2021/03/06 10:04:38;;;;;;;5.90;4.50;;;;;;;5.34;44.08;102132.47;5096827;28;20147;-86
2021/03/06 10:07:12;;;;;;;7.53;4.38;;;;;;;5.43;42.64;102142.09;5097506;28;20104;-86
2021/03/06 10:09:43;;;;;;;6.82;4.50;;;;;;;5.46;43.23;102135.09;5107709;28;20040;-81
2021/03/06 10:12:15;;;;;;;9.27;4.32;;;;;;;5.62;43.60;102130.75;5110722;28;20043;-87
2021/03/06 10:14:48;;;;;;;7.97;4.72;;;;;;;5.71;42.54;102140.38;5109515;28;20051;-85
2021/03/06 10:17:22;;;;;;;7.72;4.68;;;;;;;5.63;42.57;102127.25;5098423;28;20044;-83
2021/03/06 10:19:56;;;;;;;6.28;4.13;;;;;;;5.73;42.26;102136.88;5102224;28;20040;-86
2021/03/06 10:22:49;;;;;;;5.88;4.10;;;;;;;5.85;41.97;102136.00;5109321;28;20032;-85
2021/03/06 10:25:26;;;;;;;5.10;3.60;;;;;;;5.89;40.33;102133.41;5091255;28;20090;-86
2021/03/06 10:30:44;;;;;;;6.18;3.70;;;;;;;5.86;40.17;102120.22;5250561;22;20049;-87
2021/03/06 10:33:22;;;;;;;4.65;3.40;;;;;;;5.98;39.39;102128.13;5037025;28;20072;-87
2021/03/06 10:35:52;;;;;;;4.13;2.50;;;;;;;6.03;36.83;102127.25;5042624;28;20101;-87
2021/03/06 10:38:25;;;;;;;5.03;3.10;;;;;;;6.06;37.76;102125.50;5047526;28;20042;-84
2021/03/06 10:40:56;;;;;;;5.10;3.30;;;;;;;6.13;38.02;102124.63;5042665;28;20113;-87
2021/03/06 10:43:34;;;;;;;3.75;2.72;;;;;;;6.18;36.27;102121.97;5041669;28;20065;-88
2021/03/06 10:46:16;;;;;;;4.95;3.17;;;;;;;6.20;37.21;102120.22;5039088;28;20143;-87
2021/03/06 10:48:50;;;;;;;5.88;3.58;;;;;;;6.12;38.76;102116.75;5039054;28;20084;-84
2021/03/06 10:51:16;;;;;;;5.50;3.22;;;;;;;6.29;37.71;102114.97;5027219;28;20053;-86
2021/03/06 10:53:43;;;;;;;7.95;3.33;;;;;;;6.32;36.50;102114.94;5040543;28;20049;-84
2021/03/06 10:56:27;;;;;;;5.03;3.35;;;;;;;6.35;36.84;102114.94;5051871;28;20033;-83
2021/03/06 10:58:54;;;;;;;5.63;3.45;;;;;;;6.45;37.30;102113.19;5049637;28;20065;-85
2021/03/06 11:01:34;;;;;;;5.75;3.80;;;;;;;6.51;37.13;102121.03;5036638;28;20052;-84
2021/03/06 11:04:01;;;;;;;5.28;3.03;;;;;;;6.48;35.87;102124.56;5054691;28;20045;-87
2021/03/06 11:06:28;;;;;;;6.38;3.15;;;;;;;6.50;35.85;102128.06;5063905;28;20053;-84
2021/03/06 11:08:59;;;;;;;5.80;2.72;;;;;;;6.44;33.91;102117.56;5039232;28;20057;-83
2021/03/06 11:11:43;;;;;;;4.88;2.90;;;;;;;6.51;34.02;102119.28;5044676;28;20060;-83
2021/03/06 11:14:27;;;;;;;5.32;2.90;;;;;;;6.48;33.70;102100.88;5043779;28;20060;-84
2021/03/06 11:16:54;;;;;;;4.70;2.30;;;;;;;6.40;29.61;102101.78;5035191;28;20061;-84
2021/03/06 11:19:23;;;;;;;3.35;2.45;;;;;;;6.45;33.15;102098.28;5024262;28;20057;-85
2021/03/06 11:21:49;;;;;;;6.03;3.22;;;;;;;6.60;34.39;102086.81;5032804;28;20100;-87
2021/03/06 11:24:16;;;;;;;6.20;3.60;;;;;;;6.79;35.80;102100.75;5052352;28;20033;-86
2021/03/06 11:26:43;;;;;;;6.22;3.67;;;;;;;6.93;36.03;102097.16;5054141;28;20045;-87
2021/03/06 11:29:09;;;;;;;5.80;3.58;;;;;;;7.11;35.06;102096.19;5052187;28;20038;-86
2021/03/06 11:31:56;;;;;;;8.18;3.53;;;;;;;7.06;35.59;102066.41;5053483;28;20045;-85
2021/03/06 11:34:29;;;;;;;4.82;3.22;;;;;;;7.04;34.81;102081.34;5030096;28;20057;-83
2021/03/06 11:36:58;;;;;;;6.55;3.47;;;;;;;6.85;34.69;102077.91;5029475;28;20046;-83
2021/03/06 11:39:25;;;;;;;5.07;3.20;;;;;;;6.85;35.15;102084.94;5046858;28;20046;-84
2021/03/06 11:41:52;;;;;;;5.10;3.65;;;;;;;6.79;34.60;102080.56;5044071;28;20067;-85
2021/03/06 11:44:19;;;;;;;4.18;3.28;;;;;;;6.80;34.51;102076.16;5021601;28;20048;-85